sensor_id;sensor_type;location;lat;lon;timestamp;pressure;altitude;pressure_sealevel;temperature;humidity
27220;BME280;45274;52.266;10.790;2024-01-27T00:01:32;101663.63;;;4.08;100.00
27220;BME280;45274;52.266;10.790;2024-01-27T00:03:58;101665.28;;;4.09;100.00
27220;BME280;45274;52.266;10.790;2024-01-27T00:06:23;101665.09;;;4.15;100.00
27220;BME280;45274;52.266;10.790;2024-01-27T00:08:48;101676.84;;;4.17;100.00
27220;BME280;45274;52.266;10.790;2024-01-27T00:11:14;101665.56;;;4.24;100.00
27220;BME280;45274;52.266;10.790;2024-01-27T00:13:39;101674.97;;;4.22;100.00
27220;BME280;45274;52.266;10.790;2024-01-27T00:16:05;101665.56;;;4.24;100.00
27220;BME280;45274;52.266;10.790;2024-01-27T00:18:30;101673.44;;;4.18;100.00
27220;BME280;45274;52.266;10.790;2024-01-27T00:20:56;101671.47;;;4.25;100.00
27220;BME280;45274;52.266;10.790;2024-01-27T00:23:21;101669.94;;;4.21;100.00
27220;BME280;45274;52.266;10.790;2024-01-27T00:25:47;101666.59;;;4.20;100.00
27220;BME280;45274;52.266;10.790;2024-01-27T00:28:12;101670.91;;;4.18;100.00
27220;BME280;45274;52.266;10.790;2024-01-27T00:30:38;101674.34;;;4.16;100.00
27220;BME280;45274;52.266;10.790;2024-01-27T00:33:03;101667.41;;;4.21;100.00
27220;BME280;45274;52.266;10.790;2024-01-27T00:35:29;101673.44;;;4.18;100.00
27220;BME280;45274;52.266;10.790;2024-01-27T00:37:54;101670.94;;;4.17;100.00
27220;BME280;45274;52.266;10.790;2024-01-27T00:40:19;101684.63;;;4.13;100.00
27220;BME280;45274;52.266;10.790;2024-01-27T00:42:45;101678.59;;;4.15;100.00
27220;BME280;45274;52.266;10.790;2024-01-27T00:45:10;101692.81;;;4.19;100.00
27220;BME280;45274;52.266;10.790;2024-01-27T00:47:35;101684.28;;;4.22;100.00
27220;BME280;45274;52.266;10.790;2024-01-27T00:50:01;101681.81;;;4.20;100.00
27220;BME280;45274;52.266;10.790;2024-01-27T00:52:26;101693.75;;;4.17;100.00
27220;BME280;45274;52.266;10.790;2024-01-27T00:54:52;101687.53;;;4.25;100.00
27220;BME280;45274;52.266;10.790;2024-01-27T00:57:17;101694.94;;;4.31;100.00
27220;BME280;45274;52.266;10.790;2024-01-27T00:59:43;101692.63;;;4.25;100.00
27220;BME280;45274;52.266;10.790;2024-01-27T01:02:09;101694.22;;;4.28;100.00
27220;BME280;45274;52.266;10.790;2024-01-27T01:04:34;101687.44;;;4.28;100.00
27220;BME280;45274;52.266;10.790;2024-01-27T01:06:59;101688.28;;;4.29;100.00
27220;BME280;45274;52.266;10.790;2024-01-27T01:09:25;101690.09;;;4.25;100.00
27220;BME280;45274;52.266;10.790;2024-01-27T01:11:50;101695.06;;;4.28;100.00
27220;BME280;45274;52.266;10.790;2024-01-27T01:14:16;101694.31;;;4.25;100.00
27220;BME280;45274;52.266;10.790;2024-01-27T01:16:41;101693.44;;;4.26;100.00
27220;BME280;45274;52.266;10.790;2024-01-27T01:19:07;101703.53;;;4.27;100.00
27220;BME280;45274;52.266;10.790;2024-01-27T01:21:32;101704.38;;;4.28;100.00
27220;BME280;45274;52.266;10.790;2024-01-27T01:23:57;101710.47;;;4.22;100.00
27220;BME280;45274;52.266;10.790;2024-01-27T01:26:24;101710.47;;;4.22;100.00
27220;BME280;45274;52.266;10.790;2024-01-27T01:28:50;101710.56;;;4.21;100.00
27220;BME280;45274;52.266;10.790;2024-01-27T01:31:15;101706.34;;;4.20;100.00
27220;BME280;45274;52.266;10.790;2024-01-27T01:33:41;101713.19;;;4.18;100.00
27220;BME280;45274;52.266;10.790;2024-01-27T01:36:07;101712.25;;;4.20;100.00
27220;BME280;45274;52.266;10.790;2024-01-27T01:38:32;101711.78;;;4.09;100.00
27220;BME280;45274;52.266;10.790;2024-01-27T01:40:57;101712.13;;;3.98;100.00
27220;BME280;45274;52.266;10.790;2024-01-27T01:43:23;101711.38;;;3.96;100.00
27220;BME280;45274;52.266;10.790;2024-01-27T01:45:48;101710.88;;;3.85;100.00
27220;BME280;45274;52.266;10.790;2024-01-27T01:48:15;101713.69;;;3.78;100.00
27220;BME280;45274;52.266;10.790;2024-01-27T01:50:41;101718.03;;;3.74;100.00
27220;BME280;45274;52.266;10.790;2024-01-27T01:53:07;101717.72;;;3.83;100.00
27220;BME280;45274;52.266;10.790;2024-01-27T01:55:33;101720.66;;;3.71;100.00
27220;BME280;45274;52.266;10.790;2024-01-27T01:57:59;101723.38;;;3.65;100.00
27220;BME280;45274;52.266;10.790;2024-01-27T02:00:24;101740.97;;;3.70;100.00
27220;BME280;45274;52.266;10.790;2024-01-27T02:02:49;101741.78;;;3.72;100.00
27220;BME280;45274;52.266;10.790;2024-01-27T02:05:15;101754.94;;;3.83;100.00
27220;BME280;45274;52.266;10.790;2024-01-27T02:07:40;101750.69;;;3.83;100.00
27220;BME280;45274;52.266;10.790;2024-01-27T02:10:12;101756.38;;;3.90;100.00
27220;BME280;45274;52.266;10.790;2024-01-27T02:12:38;101759.63;;;3.95;100.00
27220;BME280;45274;52.266;10.790;2024-01-27T02:15:04;101762.06;;;3.98;100.00
27220;BME280;45274;52.266;10.790;2024-01-27T02:17:29;101770.47;;;3.98;100.00
27220;BME280;45274;52.266;10.790;2024-01-27T02:19:54;101770.34;;;4.03;100.00
27220;BME280;45274;52.266;10.790;2024-01-27T02:22:20;101774.47;;;4.06;100.00
27220;BME280;45274;52.266;10.790;2024-01-27T02:24:45;101783.06;;;4.01;100.00
27220;BME280;45274;52.266;10.790;2024-01-27T02:27:12;101783.97;;;4.00;100.00
27220;BME280;45274;52.266;10.790;2024-01-27T02:29:37;101785.47;;;4.06;100.00
27220;BME280;45274;52.266;10.790;2024-01-27T02:32:03;101789.59;;;4.09;100.00
27220;BME280;45274;52.266;10.790;2024-01-27T02:34:28;101800.63;;;4.08;100.00
27220;BME280;45274;52.266;10.790;2024-01-27T02:36:53;101783.59;;;4.11;100.00
27220;BME280;45274;52.266;10.790;2024-01-27T02:39:19;101782.66;;;4.14;100.00
27220;BME280;45274;52.266;10.790;2024-01-27T02:41:44;101777.56;;;4.15;100.00
27220;BME280;45274;52.266;10.790;2024-01-27T02:44:09;101780.09;;;4.15;100.00
27220;BME280;45274;52.266;10.790;2024-01-27T02:46:35;101780.78;;;4.20;100.00
27220;BME280;45274;52.266;10.790;2024-01-27T02:49:00;101769.94;;;4.15;100.00
27220;BME280;45274;52.266;10.790;2024-01-27T02:51:25;101777.47;;;4.18;100.00
27220;BME280;45274;52.266;10.790;2024-01-27T02:53:51;101785.28;;;4.12;100.00
27220;BME280;45274;52.266;10.790;2024-01-27T02:56:16;101791.28;;;4.10;100.00
27220;BME280;45274;52.266;10.790;2024-01-27T02:58:42;101786.09;;;4.13;100.00
27220;BME280;45274;52.266;10.790;2024-01-27T03:01:07;101800.31;;;4.18;100.00
27220;BME280;45274;52.266;10.790;2024-01-27T03:03:33;101804.53;;;4.18;100.00
27220;BME280;45274;52.266;10.790;2024-01-27T03:05:58;101792.47;;;4.24;100.00
27220;BME280;45274;52.266;10.790;2024-01-27T03:08:24;101790.75;;;4.25;100.00
27220;BME280;45274;52.266;10.790;2024-01-27T03:10:49;101790.81;;;4.23;100.00
27220;BME280;45274;52.266;10.790;2024-01-27T03:13:15;101804.44;;;4.21;100.00
27220;BME280;45274;52.266;10.790;2024-01-27T03:15:40;101798.53;;;4.20;100.00
27220;BME280;45274;52.266;10.790;2024-01-27T03:18:07;101804.56;;;4.16;100.00
27220;BME280;45274;52.266;10.790;2024-01-27T03:20:33;101796.75;;;4.22;100.00
27220;BME280;45274;52.266;10.790;2024-01-27T03:22:58;101801.81;;;4.24;100.00
27220;BME280;45274;52.266;10.790;2024-01-27T03:25:24;101807.09;;;4.16;100.00
27220;BME280;45274;52.266;10.790;2024-01-27T03:27:51;101813.03;;;4.17;100.00
27220;BME280;45274;52.266;10.790;2024-01-27T03:30:17;101824.88;;;4.16;100.00
27220;BME280;45274;52.266;10.790;2024-01-27T03:32:42;101815.53;;;4.18;100.00
27220;BME280;45274;52.266;10.790;2024-01-27T03:35:07;101821.47;;;4.17;100.00
27220;BME280;45274;52.266;10.790;2024-01-27T03:37:33;101819.19;;;4.10;100.00
27220;BME280;45274;52.266;10.790;2024-01-27T03:40:00;101822.50;;;4.12;100.00
27220;BME280;45274;52.266;10.790;2024-01-27T03:42:25;101818.47;;;4.05;100.00
27220;BME280;45274;52.266;10.790;2024-01-27T03:44:50;101812.69;;;4.01;100.00
27220;BME280;45274;52.266;10.790;2024-01-27T03:47:16;101820.31;;;4.01;100.00
27220;BME280;45274;52.266;10.790;2024-01-27T03:49:42;101821.91;;;4.04;100.00
27220;BME280;45274;52.266;10.790;2024-01-27T03:52:07;101822.09;;;3.97;100.00
27220;BME280;45274;52.266;10.790;2024-01-27T03:54:33;101814.53;;;3.96;100.00
27220;BME280;45274;52.266;10.790;2024-01-27T03:56:58;101828.09;;;3.95;100.00
27220;BME280;45274;52.266;10.790;2024-01-27T03:59:24;101831.41;;;3.97;100.00
27220;BME280;45274;52.266;10.790;2024-01-27T04:01:49;101839.94;;;3.94;100.00
27220;BME280;45274;52.266;10.790;2024-01-27T04:04:15;101837.31;;;3.97;100.00
27220;BME280;45274;52.266;10.790;2024-01-27T04:06:40;101837.31;;;3.97;100.00
27220;BME280;45274;52.266;10.790;2024-01-27T04:09:06;101852.53;;;3.97;100.00
27220;BME280;45274;52.266;10.790;2024-01-27T04:11:34;101849.41;;;3.89;100.00
27220;BME280;45274;52.266;10.790;2024-01-27T04:14:02;101850.09;;;3.94;100.00
27220;BME280;45274;52.266;10.790;2024-01-27T04:16:28;101856.78;;;3.97;100.00
27220;BME280;45274;52.266;10.790;2024-01-27T04:18:53;101856.13;;;3.90;100.00
27220;BME280;45274;52.266;10.790;2024-01-27T04:21:19;101853.47;;;3.95;100.00
27220;BME280;45274;52.266;10.790;2024-01-27T04:23:44;101866.44;;;3.86;100.00
27220;BME280;45274;52.266;10.790;2024-01-27T04:26:10;101865.50;;;3.88;100.00
27220;BME280;45274;52.266;10.790;2024-01-27T04:28:36;101856.13;;;3.90;100.00
27220;BME280;45274;52.266;10.790;2024-01-27T04:31:01;101847.09;;;3.82;100.00
27220;BME280;45274;52.266;10.790;2024-01-27T04:33:27;101847.09;;;3.82;100.00
27220;BME280;45274;52.266;10.790;2024-01-27T04:35:52;101868.16;;;3.84;100.00
27220;BME280;45274;52.266;10.790;2024-01-27T04:38:17;101857.16;;;3.85;100.00
27220;BME280;45274;52.266;10.790;2024-01-27T04:40:43;101865.00;;;3.77;100.00
27220;BME280;45274;52.266;10.790;2024-01-27T04:43:08;101865.09;;;3.74;100.00
27220;BME280;45274;52.266;10.790;2024-01-27T04:45:34;101868.53;;;3.72;100.00
27220;BME280;45274;52.266;10.790;2024-01-27T04:47:59;101869.59;;;3.65;100.00
27220;BME280;45274;52.266;10.790;2024-01-27T04:50:26;101856.06;;;3.64;100.00
27220;BME280;45274;52.266;10.790;2024-01-27T04:52:51;101872.97;;;3.64;100.00
27220;BME280;45274;52.266;10.790;2024-01-27T04:55:17;101874.56;;;3.68;100.00
27220;BME280;45274;52.266;10.790;2024-01-27T04:57:42;101892.53;;;3.60;100.00
27220;BME280;45274;52.266;10.790;2024-01-27T05:00:08;101889.19;;;3.60;100.00
27220;BME280;45274;52.266;10.790;2024-01-27T05:02:39;101887.38;;;3.63;100.00
27220;BME280;45274;52.266;10.790;2024-01-27T05:05:04;101880.72;;;3.59;100.00
27220;BME280;45274;52.266;10.790;2024-01-27T05:07:30;101883.25;;;3.61;100.00
27220;BME280;45274;52.266;10.790;2024-01-27T05:09:55;101883.25;;;3.61;100.00
27220;BME280;45274;52.266;10.790;2024-01-27T05:12:21;101880.91;;;3.53;100.00
27220;BME280;45274;52.266;10.790;2024-01-27T05:14:46;101886.16;;;3.47;100.00
27220;BME280;45274;52.266;10.790;2024-01-27T05:17:11;101886.16;;;3.47;100.00
27220;BME280;45274;52.266;10.790;2024-01-27T05:19:37;101889.00;;;3.36;100.00
27220;BME280;45274;52.266;10.790;2024-01-27T05:22:02;101892.31;;;3.38;100.00
27220;BME280;45274;52.266;10.790;2024-01-27T05:24:27;101891.63;;;3.32;100.00
27220;BME280;45274;52.266;10.790;2024-01-27T05:26:53;101895.06;;;3.31;100.00
27220;BME280;45274;52.266;10.790;2024-01-27T05:29:18;64198.78;;;-141.81;96.31
27220;BME280;45274;52.266;10.790;2024-01-27T05:31:44;101899.97;;;3.37;100.00
27220;BME280;45274;52.266;10.790;2024-01-27T05:34:12;101901.75;;;3.33;100.00
27220;BME280;45274;52.266;10.790;2024-01-27T05:36:38;101901.75;;;3.33;100.00
27220;BME280;45274;52.266;10.790;2024-01-27T05:39:03;101900.97;;;3.31;100.00
27220;BME280;45274;52.266;10.790;2024-01-27T05:41:32;101895.22;;;3.25;100.00
27220;BME280;45274;52.266;10.790;2024-01-27T05:43:58;64198.78;;;-141.81;100.00
27220;BME280;45274;52.266;10.790;2024-01-27T05:46:26;64198.78;;;-141.81;100.00
27220;BME280;45274;52.266;10.790;2024-01-27T05:48:52;64198.78;;;-141.81;100.00
27220;BME280;45274;52.266;10.790;2024-01-27T05:51:25;81623.41;;;3.25;100.00
27220;BME280;45274;52.266;10.790;2024-01-27T05:53:50;64198.78;;;3.25;100.00
27220;BME280;45274;52.266;10.790;2024-01-27T05:56:16;101907.72;;;2.66;100.00
27220;BME280;45274;52.266;10.790;2024-01-27T05:58:44;101907.72;;;2.66;100.00
27220;BME280;45274;52.266;10.790;2024-01-27T06:01:09;64198.78;;;-141.81;100.00
27220;BME280;45274;52.266;10.790;2024-01-27T06:03:35;101907.72;;;2.66;100.00
27220;BME280;45274;52.266;10.790;2024-01-27T06:06:01;101921.56;;;2.52;100.00
27220;BME280;45274;52.266;10.790;2024-01-27T06:08:27;101921.72;;;2.46;100.00
27220;BME280;45274;52.266;10.790;2024-01-27T06:10:52;101924.25;;;2.46;100.00
27220;BME280;45274;52.266;10.790;2024-01-27T06:13:17;101918.47;;;2.41;100.00
27220;BME280;45274;52.266;10.790;2024-01-27T06:15:43;101915.75;;;2.48;100.00
27220;BME280;45274;52.266;10.790;2024-01-27T06:18:08;101922.69;;;2.40;100.00
27220;BME280;45274;52.266;10.790;2024-01-27T06:20:33;101919.44;;;2.35;100.00
27220;BME280;45274;52.266;10.790;2024-01-27T06:22:59;101915.34;;;2.29;100.00
27220;BME280;45274;52.266;10.790;2024-01-27T06:25:24;101921.13;;;2.35;100.00
27220;BME280;45274;52.266;10.790;2024-01-27T06:27:50;101932.38;;;2.23;100.00
27220;BME280;45274;52.266;10.790;2024-01-27T06:30:15;101931.53;;;2.22;100.00
27220;BME280;45274;52.266;10.790;2024-01-27T06:32:41;101941.69;;;2.21;100.00
27220;BME280;45274;52.266;10.790;2024-01-27T06:35:07;101938.25;;;2.23;100.00
27220;BME280;45274;52.266;10.790;2024-01-27T06:37:33;101938.25;;;2.23;100.00
27220;BME280;45274;52.266;10.790;2024-01-27T06:39:58;101938.25;;;2.23;100.00
27220;BME280;45274;52.266;10.790;2024-01-27T06:42:23;101929.00;;;2.22;100.00
27220;BME280;45274;52.266;10.790;2024-01-27T06:44:49;101929.00;;;2.22;100.00
27220;BME280;45274;52.266;10.790;2024-01-27T06:47:15;101934.97;;;2.20;100.00
27220;BME280;45274;52.266;10.790;2024-01-27T06:49:40;101938.53;;;2.11;100.00
27220;BME280;45274;52.266;10.790;2024-01-27T06:52:06;101944.34;;;2.15;100.00
27220;BME280;45274;52.266;10.790;2024-01-27T06:54:31;101939.97;;;2.23;100.00
27220;BME280;45274;52.266;10.790;2024-01-27T06:56:59;101950.25;;;2.15;100.00
27220;BME280;45274;52.266;10.790;2024-01-27T06:59:25;101948.66;;;2.11;100.00
27220;BME280;45274;52.266;10.790;2024-01-27T07:01:50;101957.97;;;2.08;100.00
27220;BME280;45274;52.266;10.790;2024-01-27T07:04:16;101954.66;;;2.06;100.00
27220;BME280;45274;52.266;10.790;2024-01-27T07:06:43;101954.53;;;2.13;100.00
27220;BME280;45274;52.266;10.790;2024-01-27T07:09:08;101954.53;;;2.13;100.00
27220;BME280;45274;52.266;10.790;2024-01-27T07:11:37;101954.53;;;2.13;100.00
27220;BME280;45274;52.266;10.790;2024-01-27T07:14:04;101954.53;;;2.13;100.00
27220;BME280;45274;52.266;10.790;2024-01-27T07:16:29;101954.53;;;2.13;100.00
27220;BME280;45274;52.266;10.790;2024-01-27T07:18:55;101964.72;;;2.09;100.00
27220;BME280;45274;52.266;10.790;2024-01-27T07:21:20;101964.72;;;2.09;100.00
27220;BME280;45274;52.266;10.790;2024-01-27T07:23:46;101974.91;;;2.06;100.00
27220;BME280;45274;52.266;10.790;2024-01-27T07:26:13;101973.13;;;2.09;100.00
27220;BME280;45274;52.266;10.790;2024-01-27T07:28:38;101983.38;;;2.05;100.00
27220;BME280;45274;52.266;10.790;2024-01-27T07:31:05;101981.63;;;2.07;100.00
27220;BME280;45274;52.266;10.790;2024-01-27T07:33:30;101981.63;;;2.07;100.00
27220;BME280;45274;52.266;10.790;2024-01-27T07:35:56;101985.78;;;2.09;100.00
27220;BME280;45274;52.266;10.790;2024-01-27T07:38:22;101984.16;;;2.07;100.00
27220;BME280;45274;52.266;10.790;2024-01-27T07:40:47;101992.53;;;2.09;100.00
27220;BME280;45274;52.266;10.790;2024-01-27T07:43:12;101993.31;;;2.11;100.00
27220;BME280;45274;52.266;10.790;2024-01-27T07:45:38;101983.09;;;2.17;100.00
27220;BME280;45274;52.266;10.790;2024-01-27T07:48:04;101992.41;;;2.16;100.00
27220;BME280;45274;52.266;10.790;2024-01-27T07:50:29;101994.94;;;2.15;100.00
27220;BME280;45274;52.266;10.790;2024-01-27T07:52:55;101989.88;;;2.16;100.00
27220;BME280;45274;52.266;10.790;2024-01-27T07:55:20;101989.88;;;2.16;100.00
27220;BME280;45274;52.266;10.790;2024-01-27T07:57:46;101994.81;;;2.21;100.00
27220;BME280;45274;52.266;10.790;2024-01-27T08:00:11;101991.44;;;2.22;100.00
27220;BME280;45274;52.266;10.790;2024-01-27T08:02:37;101991.38;;;2.25;100.00
27220;BME280;45274;52.266;10.790;2024-01-27T08:05:03;101993.78;;;2.29;100.00
27220;BME280;45274;52.266;10.790;2024-01-27T08:07:29;101996.97;;;2.38;100.00
27220;BME280;45274;52.266;10.790;2024-01-27T08:09:54;101996.97;;;2.38;100.00
27220;BME280;45274;52.266;10.790;2024-01-27T08:12:21;102001.13;;;2.40;100.00
27220;BME280;45274;52.266;10.790;2024-01-27T08:14:47;102004.53;;;2.39;100.00
27220;BME280;45274;52.266;10.790;2024-01-27T08:17:13;102012.00;;;2.45;100.00
27220;BME280;45274;52.266;10.790;2024-01-27T08:19:38;102012.00;;;2.45;100.00
27220;BME280;45274;52.266;10.790;2024-01-27T08:22:04;102016.03;;;2.54;100.00
27220;BME280;45274;52.266;10.790;2024-01-27T08:24:29;102015.13;;;2.56;100.00
27220;BME280;45274;52.266;10.790;2024-01-27T08:26:54;102020.06;;;2.62;100.00
27220;BME280;45274;52.266;10.790;2024-01-27T08:29:20;102014.88;;;2.67;100.00
27220;BME280;45274;52.266;10.790;2024-01-27T08:31:45;102016.34;;;2.75;100.00
27220;BME280;45274;52.266;10.790;2024-01-27T08:34:10;102021.28;;;2.81;100.00
27220;BME280;45274;52.266;10.790;2024-01-27T08:36:37;102030.47;;;2.85;100.00
27220;BME280;45274;52.266;10.790;2024-01-27T08:39:03;102023.59;;;2.91;100.00
27220;BME280;45274;52.266;10.790;2024-01-27T08:41:29;102039.56;;;2.94;100.00
27220;BME280;45274;52.266;10.790;2024-01-27T08:43:55;102042.81;;;2.99;100.00
27220;BME280;45274;52.266;10.790;2024-01-27T08:46:20;102043.44;;;3.09;100.00
27220;BME280;45274;52.266;10.790;2024-01-27T08:48:48;102043.44;;;3.09;100.00
27220;BME280;45274;52.266;10.790;2024-01-27T08:51:13;102050.19;;;3.08;100.00
27220;BME280;45274;52.266;10.790;2024-01-27T08:53:41;102050.19;;;3.08;100.00
27220;BME280;45274;52.266;10.790;2024-01-27T08:56:07;102050.19;;;3.08;100.00
27220;BME280;45274;52.266;10.790;2024-01-27T08:58:32;102036.34;;;3.21;100.00
27220;BME280;45274;52.266;10.790;2024-01-27T09:00:58;102036.34;;;3.21;100.00
27220;BME280;45274;52.266;10.790;2024-01-27T09:03:25;102054.50;;;3.38;100.00
27220;BME280;45274;52.266;10.790;2024-01-27T09:05:50;102054.50;;;3.38;100.00
27220;BME280;45274;52.266;10.790;2024-01-27T09:08:16;102062.72;;;3.48;100.00
27220;BME280;45274;52.266;10.790;2024-01-27T09:10:42;102070.25;;;3.51;100.00
27220;BME280;45274;52.266;10.790;2024-01-27T09:13:07;102081.13;;;3.55;100.00
27220;BME280;45274;52.266;10.790;2024-01-27T09:15:33;102072.66;;;3.56;100.00
27220;BME280;45274;52.266;10.790;2024-01-27T09:17:58;102069.97;;;3.62;100.00
27220;BME280;45274;52.266;10.790;2024-01-27T09:20:23;102069.97;;;3.62;100.00
27220;BME280;45274;52.266;10.790;2024-01-27T09:22:49;102074.78;;;3.71;100.00
27220;BME280;45274;52.266;10.790;2024-01-27T09:25:16;102077.25;;;3.74;100.00
27220;BME280;45274;52.266;10.790;2024-01-27T09:27:41;102082.09;;;3.83;100.00
27220;BME280;45274;52.266;10.790;2024-01-27T09:30:07;102082.00;;;3.86;100.00
27220;BME280;45274;52.266;10.790;2024-01-27T09:32:33;102087.63;;;3.95;100.00
27220;BME280;45274;52.266;10.790;2024-01-27T09:34:58;102088.41;;;3.99;100.00
27220;BME280;45274;52.266;10.790;2024-01-27T09:37:23;102082.38;;;4.03;100.00
27220;BME280;45274;52.266;10.790;2024-01-27T09:39:49;102089.78;;;4.11;100.00
27220;BME280;45274;52.266;10.790;2024-01-27T09:42:14;102102.50;;;4.09;100.00
27220;BME280;45274;52.266;10.790;2024-01-27T09:44:43;102097.22;;;4.17;100.00
27220;BME280;45274;52.266;10.790;2024-01-27T09:47:12;102102.91;;;4.25;100.00
27220;BME280;45274;52.266;10.790;2024-01-27T09:49:39;102115.44;;;4.31;100.00
27220;BME280;45274;52.266;10.790;2024-01-27T09:52:06;102121.31;;;4.33;100.00
27220;BME280;45274;52.266;10.790;2024-01-27T09:54:31;102121.03;;;4.42;100.00
27220;BME280;45274;52.266;10.790;2024-01-27T09:56:57;102115.94;;;4.43;100.00
27220;BME280;45274;52.266;10.790;2024-01-27T09:59:23;102119.75;;;4.56;100.00
27220;BME280;45274;52.266;10.790;2024-01-27T10:01:51;102130.63;;;4.62;100.00
27220;BME280;45274;52.266;10.790;2024-01-27T10:04:19;102116.94;;;4.67;100.00
27220;BME280;45274;52.266;10.790;2024-01-27T10:06:45;102118.53;;;4.70;100.00
27220;BME280;45274;52.266;10.790;2024-01-27T10:09:12;102108.28;;;4.73;100.00
27220;BME280;45274;52.266;10.790;2024-01-27T10:11:39;102113.78;;;4.87;100.00
27220;BME280;45274;52.266;10.790;2024-01-27T10:14:06;102119.72;;;4.86;100.00
27220;BME280;45274;52.266;10.790;2024-01-27T10:16:40;102122.25;;;4.87;100.00
27220;BME280;45274;52.266;10.790;2024-01-27T10:19:06;102123.84;;;4.90;100.00
27220;BME280;45274;52.266;10.790;2024-01-27T10:21:31;102112.69;;;4.95;100.00
27220;BME280;45274;52.266;10.790;2024-01-27T10:23:57;102126.94;;;4.99;100.00
27220;BME280;45274;52.266;10.790;2024-01-27T10:26:23;102114.94;;;5.04;100.00
27220;BME280;45274;52.266;10.790;2024-01-27T10:28:55;102122.59;;;5.03;100.00
27220;BME280;45274;52.266;10.790;2024-01-27T10:31:26;102128.31;;;5.09;100.00
27220;BME280;45274;52.266;10.790;2024-01-27T10:33:52;102134.91;;;5.17;100.00
27220;BME280;45274;52.266;10.790;2024-01-27T10:36:27;102126.38;;;5.18;100.00
27220;BME280;45274;52.266;10.790;2024-01-27T10:39:13;102128.81;;;5.21;99.60
27220;BME280;45274;52.266;10.790;2024-01-27T10:41:39;102137.97;;;5.26;98.12
27220;BME280;45274;52.266;10.790;2024-01-27T10:44:06;102137.03;;;5.29;100.00
27220;BME280;45274;52.266;10.790;2024-01-27T10:46:32;102132.84;;;5.28;100.00
27220;BME280;45274;52.266;10.790;2024-01-27T10:48:59;102131.75;;;5.35;99.55
27220;BME280;45274;52.266;10.790;2024-01-27T10:51:30;102124.75;;;5.41;98.61
27220;BME280;45274;52.266;10.790;2024-01-27T10:54:01;102137.13;;;5.52;97.11
27220;BME280;45274;52.266;10.790;2024-01-27T10:56:27;102130.41;;;5.51;97.81
27220;BME280;45274;52.266;10.790;2024-01-27T10:58:52;102140.47;;;5.54;97.32
27220;BME280;45274;52.266;10.790;2024-01-27T11:01:20;102141.25;;;5.56;96.96
27220;BME280;45274;52.266;10.790;2024-01-27T11:03:48;102141.63;;;5.70;97.66
27220;BME280;45274;52.266;10.790;2024-01-27T11:06:15;102139.06;;;5.70;96.88
27220;BME280;45274;52.266;10.790;2024-01-27T11:08:42;102139.25;;;5.65;96.70
27220;BME280;45274;52.266;10.790;2024-01-27T11:11:07;102136.31;;;5.76;97.14
27220;BME280;45274;52.266;10.790;2024-01-27T11:13:33;102137.19;;;5.75;95.90
27220;BME280;45274;52.266;10.790;2024-01-27T11:15:59;102125.50;;;5.69;95.79
27220;BME280;45274;52.266;10.790;2024-01-27T11:18:25;102130.50;;;5.72;95.55
27220;BME280;45274;52.266;10.790;2024-01-27T11:20:56;102128.78;;;5.73;96.62
27220;BME280;45274;52.266;10.790;2024-01-27T11:23:32;102131.03;;;5.82;96.70
27220;BME280;45274;52.266;10.790;2024-01-27T11:26:04;102126.66;;;5.87;95.22
27220;BME280;45274;52.266;10.790;2024-01-27T11:28:30;102122.06;;;5.97;94.54
27220;BME280;45274;52.266;10.790;2024-01-27T11:30:56;102124.41;;;6.03;94.29
27220;BME280;45274;52.266;10.790;2024-01-27T11:33:24;102123.38;;;6.08;94.02
27220;BME280;45274;52.266;10.790;2024-01-27T11:36:00;102124.97;;;6.11;94.75
27220;BME280;45274;52.266;10.790;2024-01-27T11:38:26;102115.44;;;6.16;93.44
27220;BME280;45274;52.266;10.790;2024-01-27T11:40:51;102111.81;;;6.23;93.56
27220;BME280;45274;52.266;10.790;2024-01-27T11:43:17;102111.81;;;6.23;93.13
27220;BME280;45274;52.266;10.790;2024-01-27T11:45:42;102126.72;;;6.32;91.48
27220;BME280;45274;52.266;10.790;2024-01-27T11:48:07;102126.72;;;6.32;91.48
27220;BME280;45274;52.266;10.790;2024-01-27T11:50:33;102124.47;;;6.24;91.66
27220;BME280;45274;52.266;10.790;2024-01-27T11:52:58;102126.19;;;6.24;91.85
27220;BME280;45274;52.266;10.790;2024-01-27T11:55:23;102134.34;;;6.34;91.20
27220;BME280;45274;52.266;10.790;2024-01-27T11:57:49;102124.19;;;6.32;91.08
27220;BME280;45274;52.266;10.790;2024-01-27T12:00:14;102127.69;;;6.29;90.63
27220;BME280;45274;52.266;10.790;2024-01-27T12:02:41;102129.41;;;6.29;91.02
27220;BME280;45274;52.266;10.790;2024-01-27T12:05:07;102137.72;;;6.34;90.32
27220;BME280;45274;52.266;10.790;2024-01-27T12:07:33;102132.50;;;6.37;90.68
27220;BME280;45274;52.266;10.790;2024-01-27T12:09:59;102123.84;;;6.41;91.40
27220;BME280;45274;52.266;10.790;2024-01-27T12:12:24;102129.69;;;6.45;90.83
27220;BME280;45274;52.266;10.790;2024-01-27T12:14:51;102122.91;;;6.44;89.83
27220;BME280;45274;52.266;10.790;2024-01-27T12:17:17;102128.00;;;6.44;89.94
27220;BME280;45274;52.266;10.790;2024-01-27T12:19:51;102131.50;;;6.41;90.19
27220;BME280;45274;52.266;10.790;2024-01-27T12:22:29;102133.06;;;6.45;90.78
27220;BME280;45274;52.266;10.790;2024-01-27T12:25:15;102141.41;;;6.49;89.93
27220;BME280;45274;52.266;10.790;2024-01-27T12:27:40;102142.91;;;6.54;89.83
27220;BME280;45274;52.266;10.790;2024-01-27T12:30:06;102152.16;;;6.57;89.16
27220;BME280;45274;52.266;10.790;2024-01-27T12:32:33;102154.72;;;6.57;89.47
27220;BME280;45274;52.266;10.790;2024-01-27T12:35:07;102146.44;;;6.50;90.26